Time;durP1;ratioP1;P1;durP2;ratioP2;P2;SDS_P1;SDS_P2;PMS_P1;PMS_P2;Temp;Humidity;BMP_temperature;BMP_pressure;BME280_temperature;BME280_humidity;BME280_pressure;Samples;Min_cycle;Max_cycle;Signal;HPM_P1;HPM_P2
2023/03/07 00:00:33;;;;;;;;;;;1.60;99.90;;;;;;4984625;28;19914;-82
2023/03/07 00:02:58;;;;;;;;;;;1.60;99.90;;;;;;5000803;28;20255;-83
2023/03/07 00:05:24;;;;;;;;;;;1.60;99.90;;;;;;5000862;28;19980;-83
2023/03/07 00:07:50;;;;;;;;;;;1.70;99.90;;;;;;5018248;28;19910;-83
2023/03/07 00:10:16;;;;;;;;;;;1.70;99.90;;;;;;5018295;28;20316;-83
2023/03/07 00:12:41;;;;;;;;;;;1.70;99.90;;;;;;5000537;28;19977;-83
2023/03/07 00:15:07;;;;;;;;;;;1.70;99.90;;;;;;5000786;28;19910;-83
2023/03/07 00:17:36;;;;;;;;;;;1.60;99.90;;;;;;4984202;28;20354;-83
2023/03/07 00:20:05;;;;;;;;;;;1.60;99.90;;;;;;4984512;28;19914;-82
2023/03/07 00:22:31;;;;;;;;;;;1.60;99.90;;;;;;5000251;28;19917;-82
2023/03/07 00:24:56;;;;;;;;;;;1.50;99.90;;;;;;5000335;28;19920;-82
2023/03/07 00:27:22;;;;;;;;;;;1.40;99.90;;;;;;4983918;28;19957;-83
2023/03/07 00:29:49;;;;;;;;;;;1.30;99.90;;;;;;5017735;28;19910;-83
2023/03/07 00:32:14;;;;;;;;;;;1.20;99.90;;;;;;5000763;28;19913;-83
2023/03/07 00:34:40;;;;;;;;;;;1.10;99.90;;;;;;4983847;28;20378;-83
2023/03/07 00:37:05;;;;;;;;;;;1.00;99.90;;;;;;4983832;28;19914;-82
2023/03/07 00:39:31;;;;;;;;;;;1.00;99.90;;;;;;5016760;28;19981;-83
2023/03/07 00:41:57;;;;;;;;;;;1.00;99.90;;;;;;4984073;28;19913;-83
2023/03/07 00:44:24;;;;;;;;;;;1.00;99.90;;;;;;4983942;28;19922;-83
2023/03/07 00:46:49;;;;;;;;;;;1.10;99.90;;;;;;4984026;28;19914;-83
2023/03/07 00:49:15;;;;;;;;;;;1.10;99.90;;;;;;4999659;28;19920;-83
2023/03/07 00:51:40;;;;;;;;;;;1.10;99.90;;;;;;4983546;28;19918;-83
2023/03/07 00:54:06;;;;;;;;;;;1.10;99.90;;;;;;4999778;28;19920;-83
2023/03/07 00:56:32;;;;;;;;;;;1.10;99.90;;;;;;4999713;28;19921;-82
2023/03/07 00:58:57;;;;;;;;;;;1.10;99.90;;;;;;4983699;28;19936;-82
2023/03/07 01:01:24;;;;;;;;;;;1.10;99.90;;;;;;4999463;28;20015;-84
2023/03/07 01:03:53;;;;;;;;;;;1.10;99.90;;;;;;5005294;28;19936;-82
2023/03/07 01:06:19;;;;;;;;;;;1.00;99.90;;;;;;5007476;28;19910;-82
2023/03/07 01:08:45;;;;;;;;;;;1.00;99.90;;;;;;5007278;28;19981;-83
2023/03/07 01:11:11;;;;;;;;;;;0.90;99.90;;;;;;5025416;28;19918;-82
2023/03/07 01:13:37;;;;;;;;;;;0.80;99.90;;;;;;5007249;28;20326;-83
2023/03/07 01:16:07;;;;;;;;;;;0.70;99.90;;;;;;5006938;28;19937;-83
2023/03/07 01:18:32;;;;;;;;;;;0.70;99.90;;;;;;5001799;28;19920;-83
2023/03/07 01:20:58;;;;;;;;;;;0.70;99.90;;;;;;5001257;28;20293;-83
2023/03/07 01:23:23;;;;;;;;;;;0.80;99.90;;;;;;5000948;28;20025;-83
2023/03/07 01:25:49;;;;;;;;;;;0.80;99.90;;;;;;5018531;28;19910;-83
2023/03/07 01:28:15;;;;;;;;;;;0.90;99.90;;;;;;5000902;28;19909;-83
2023/03/07 01:30:40;;;;;;;;;;;0.90;99.90;;;;;;4985488;28;19917;-83
2023/03/07 01:33:06;;;;;;;;;;;1.00;99.90;;;;;;5019272;28;19914;-83
2023/03/07 01:35:36;;;;;;;;;;;1.00;99.90;;;;;;5001421;28;19952;-83
2023/03/07 01:38:02;;;;;;;;;;;1.10;99.90;;;;;;5018856;28;19917;-83
2023/03/07 01:40:27;;;;;;;;;;;1.10;99.90;;;;;;5000828;28;19910;-83
2023/03/07 01:42:53;;;;;;;;;;;1.10;99.90;;;;;;4984777;28;19975;-83
2023/03/07 01:45:33;;;;;;;;;;;1.10;99.90;;;;;;5000655;28;19917;-83
2023/03/07 01:47:59;;;;;;;;;;;1.10;99.90;;;;;;5015927;28;19960;-82
2023/03/07 01:50:26;;;;;;;;;;;1.10;99.90;;;;;;5017170;28;19910;-82
2023/03/07 01:52:59;;;;;;;;;;;1.10;99.90;;;;;;4999335;28;19910;-83
2023/03/07 01:55:34;;;;;;;;;;;1.00;99.90;;;;;;5017162;28;20385;-82
2023/03/07 01:58:04;;;;;;;;;;;0.90;99.90;;;;;;5016968;28;19910;-82
2023/03/07 02:00:30;;;;;;;;;;;1.00;99.90;;;;;;4998833;28;19964;-82
2023/03/07 02:02:59;;;;;;;;;;;1.00;99.90;;;;;;4982991;28;19921;-82
2023/03/07 02:05:26;;;;;;;;;;;1.00;99.90;;;;;;5015711;28;19960;-82
2023/03/07 02:07:53;;;;;;;;;;;1.00;99.90;;;;;;4998896;28;19917;-82
2023/03/07 02:10:20;;;;;;;;;;;1.00;99.90;;;;;;5016681;28;19921;-82
2023/03/07 02:12:45;;;;;;;;;;;1.00;99.90;;;;;;4999224;28;19916;-82
2023/03/07 02:15:12;;;;;;;;;;;1.00;99.90;;;;;;5016481;28;19914;-82
2023/03/07 02:17:39;;;;;;;;;;;1.00;99.90;;;;;;5016535;28;20358;-82
2023/03/07 02:20:11;;;;;;;;;;;1.00;99.90;;;;;;4998824;28;19913;-82
2023/03/07 02:22:36;;;;;;;;;;;1.10;99.90;;;;;;5015659;28;19922;-82
2023/03/07 02:25:22;;;;;;;;;;;1.10;99.90;;;;;;4998780;28;20348;-82
2023/03/07 02:27:48;;;;;;;;;;;1.10;99.90;;;;;;5013562;28;19910;-82
2023/03/07 02:30:14;;;;;;;;;;;1.20;99.90;;;;;;4998838;28;20349;-82
2023/03/07 02:32:40;;;;;;;;;;;1.10;99.90;;;;;;5015728;28;19910;-82
2023/03/07 02:35:24;;;;;;;;;;;1.10;99.90;;;;;;4998653;28;19920;-82
2023/03/07 02:37:53;;;;;;;;;;;1.00;99.90;;;;;;5015678;28;19909;-82
2023/03/07 02:40:21;;;;;;;;;;;1.00;99.90;;;;;;4997985;28;20393;-82
2023/03/07 02:42:47;;;;;;;;;;;0.90;99.90;;;;;;4997776;28;19957;-82
2023/03/07 02:45:14;;;;;;;;;;;0.90;99.90;;;;;;5015795;28;20083;-82
2023/03/07 02:47:41;;;;;;;;;;;0.90;99.90;;;;;;5015552;28;19917;-82
2023/03/07 02:50:07;;;;;;;;;;;0.90;99.90;;;;;;5015505;28;19910;-82
2023/03/07 02:52:33;;;;;;;;;;;0.90;99.90;;;;;;4981313;28;20067;-82
2023/03/07 02:54:58;;;;;;;;;;;1.00;99.90;;;;;;4996582;28;19953;-82
2023/03/07 02:57:24;;;;;;;;;;;1.00;99.90;;;;;;4996995;28;19914;-82
2023/03/07 02:59:49;;;;;;;;;;;0.90;99.90;;;;;;5014349;28;19913;-82
2023/03/07 03:02:15;;;;;;;;;;;0.90;99.90;;;;;;4996730;28;20004;-82
2023/03/07 03:04:40;;;;;;;;;;;0.90;99.90;;;;;;5017623;28;19917;-82
2023/03/07 03:07:06;;;;;;;;;;;1.00;99.90;;;;;;5018603;28;19914;-82
2023/03/07 03:09:32;;;;;;;;;;;0.90;99.90;;;;;;5018398;28;19910;-82
2023/03/07 03:11:57;;;;;;;;;;;0.90;99.90;;;;;;5017476;28;19909;-82
2023/03/07 03:14:23;;;;;;;;;;;0.90;99.90;;;;;;5018640;28;20008;-82
2023/03/07 03:16:50;;;;;;;;;;;0.80;99.90;;;;;;5017104;28;19979;-82
2023/03/07 03:19:16;;;;;;;;;;;0.90;99.90;;;;;;5000745;28;19960;-82
2023/03/07 03:21:42;;;;;;;;;;;0.90;99.90;;;;;;5016972;28;19929;-82
2023/03/07 03:24:08;;;;;;;;;;;0.90;99.90;;;;;;5018538;28;19963;-82
2023/03/07 03:26:34;;;;;;;;;;;0.90;99.90;;;;;;5018819;28;20386;-82
2023/03/07 03:29:00;;;;;;;;;;;0.90;99.90;;;;;;5018544;28;19917;-82
2023/03/07 03:31:27;;;;;;;;;;;0.90;99.90;;;;;;5018538;28;20008;-82
2023/03/07 03:33:53;;;;;;;;;;;0.90;99.90;;;;;;5017203;28;19921;-82
2023/03/07 03:36:19;;;;;;;;;;;0.90;99.90;;;;;;5017463;28;19913;-82
2023/03/07 03:38:44;;;;;;;;;;;0.90;99.90;;;;;;5017120;28;20013;-82
2023/03/07 03:41:11;;;;;;;;;;;1.00;99.90;;;;;;5000912;28;19949;-82
2023/03/07 03:43:37;;;;;;;;;;;0.90;99.90;;;;;;5000985;28;19917;-82
2023/03/07 03:46:03;;;;;;;;;;;0.90;99.90;;;;;;5000898;28;20015;-82
2023/03/07 03:48:29;;;;;;;;;;;0.90;99.90;;;;;;5000608;28;19953;-83
2023/03/07 03:51:01;;;;;;;;;;;1.00;99.90;;;;;;5001040;28;20373;-82
2023/03/07 03:53:27;;;;;;;;;;;1.00;99.90;;;;;;5017589;28;20316;-82
2023/03/07 03:55:59;;;;;;;;;;;1.00;99.90;;;;;;5018536;28;19910;-82
2023/03/07 03:58:24;;;;;;;;;;;1.00;99.90;;;;;;5018731;28;20324;-82
2023/03/07 04:00:50;;;;;;;;;;;0.90;99.90;;;;;;5016975;28;19913;-82
2023/03/07 04:03:15;;;;;;;;;;;0.90;99.90;;;;;;5018402;28;20396;-83
2023/03/07 04:05:41;;;;;;;;;;;0.90;99.90;;;;;;5016977;28;19909;-83
2023/03/07 04:08:06;;;;;;;;;;;0.90;99.90;;;;;;5000432;28;20309;-83
2023/03/07 04:10:32;;;;;;;;;;;0.80;99.90;;;;;;5016684;28;19921;-83
2023/03/07 04:12:57;;;;;;;;;;;0.80;99.90;;;;;;5016868;28;20418;-83
2023/03/07 04:15:23;;;;;;;;;;;0.80;99.90;;;;;;5017720;28;20297;-83
2023/03/07 04:17:49;;;;;;;;;;;0.80;99.90;;;;;;5016781;28;19914;-84
2023/03/07 04:20:16;;;;;;;;;;;0.80;99.90;;;;;;5017217;28;20321;-83
2023/03/07 04:22:42;;;;;;;;;;;0.70;99.90;;;;;;5016664;28;19921;-83
2023/03/07 04:25:08;;;;;;;;;;;0.70;99.90;;;;;;5000504;28;20332;-83
2023/03/07 04:27:34;;;;;;;;;;;0.80;99.90;;;;;;5016985;28;19923;-83
2023/03/07 04:29:59;;;;;;;;;;;0.70;99.90;;;;;;5016838;28;19913;-83
2023/03/07 04:32:25;;;;;;;;;;;0.80;99.90;;;;;;5016854;28;19968;-83
2023/03/07 04:34:51;;;;;;;;;;;0.80;99.90;;;;;;5000899;28;20008;-83
2023/03/07 04:37:16;;;;;;;;;;;0.80;99.90;;;;;;5017666;28;19914;-83
2023/03/07 04:39:42;;;;;;;;;;;0.80;99.90;;;;;;5000684;28;19921;-82
2023/03/07 04:42:08;;;;;;;;;;;0.80;99.90;;;;;;5000439;28;19919;-82
2023/03/07 04:44:33;;;;;;;;;;;0.80;99.90;;;;;;5000782;28;20019;-83
2023/03/07 04:46:59;;;;;;;;;;;0.80;99.90;;;;;;5016652;28;19914;-82
2023/03/07 04:49:25;;;;;;;;;;;0.80;99.90;;;;;;5000044;28;19916;-83
2023/03/07 04:51:50;;;;;;;;;;;0.80;99.90;;;;;;5017664;28;19910;-82
2023/03/07 04:54:16;;;;;;;;;;;0.80;99.90;;;;;;5016713;28;20001;-82
2023/03/07 04:56:41;;;;;;;;;;;0.80;99.90;;;;;;4999906;28;20012;-83
2023/03/07 04:59:07;;;;;;;;;;;0.80;99.90;;;;;;4999607;28;20267;-82
2023/03/07 05:01:32;;;;;;;;;;;0.80;99.90;;;;;;5016081;28;19928;-82
2023/03/07 05:03:58;;;;;;;;;;;0.70;99.90;;;;;;5016390;28;19925;-82
2023/03/07 05:06:24;;;;;;;;;;;0.70;99.90;;;;;;5015832;28;20044;-83
2023/03/07 05:08:49;;;;;;;;;;;0.60;99.90;;;;;;5015599;28;19913;-83
2023/03/07 05:11:15;;;;;;;;;;;0.50;99.90;;;;;;5016751;28;20385;-83
2023/03/07 05:13:41;;;;;;;;;;;0.50;99.90;;;;;;5017357;28;20059;-83
2023/03/07 05:16:06;;;;;;;;;;;0.40;99.90;;;;;;5000379;28;19914;-83
2023/03/07 05:18:32;;;;;;;;;;;0.40;99.90;;;;;;5017062;28;19921;-83
2023/03/07 05:20:58;;;;;;;;;;;0.30;99.90;;;;;;4999854;28;19913;-83
2023/03/07 05:23:23;;;;;;;;;;;0.30;99.90;;;;;;5000252;28;19948;-83
2023/03/07 05:25:49;;;;;;;;;;;0.30;99.90;;;;;;5017562;28;20331;-83
2023/03/07 05:28:16;;;;;;;;;;;0.20;99.90;;;;;;5014852;28;19957;-83
2023/03/07 05:30:43;;;;;;;;;;;0.30;99.90;;;;;;5014897;28;20345;-83
2023/03/07 05:33:08;;;;;;;;;;;0.30;99.90;;;;;;5021162;28;19941;-84
2023/03/07 05:35:34;;;;;;;;;;;0.30;99.90;;;;;;4998911;28;20281;-83
2023/03/07 05:37:59;;;;;;;;;;;0.30;99.90;;;;;;5015780;28;20124;-81
2023/03/07 05:40:25;;;;;;;;;;;0.30;99.90;;;;;;5014772;28;19913;-81
2023/03/07 05:42:50;;;;;;;;;;;0.30;99.90;;;;;;5016035;28;19920;-82
2023/03/07 05:45:16;;;;;;;;;;;0.30;99.90;;;;;;5014697;28;20281;-82
2023/03/07 05:47:41;;;;;;;;;;;0.30;99.90;;;;;;5014750;28;19913;-81
2023/03/07 05:50:08;;;;;;;;;;;0.20;99.90;;;;;;5015395;28;19964;-82
2023/03/07 05:52:33;;;;;;;;;;;0.10;99.90;;;;;;5015974;28;19925;-82
2023/03/07 05:54:59;;;;;;;;;;;0.10;99.90;;;;;;5014672;28;19914;-82
2023/03/07 05:57:24;;;;;;;;;;;0.00;99.90;;;;;;5015601;28;20381;-82
2023/03/07 05:59:50;;;;;;;;;;;0.00;99.90;;;;;;5017497;28;20313;-82
2023/03/07 06:02:16;;;;;;;;;;;0.00;99.90;;;;;;5014558;28;20296;-82
2023/03/07 06:04:41;;;;;;;;;;;0.00;99.90;;;;;;4999288;28;19944;-82
2023/03/07 06:07:07;;;;;;;;;;;0.00;99.90;;;;;;4999666;28;19914;-82
2023/03/07 06:09:32;;;;;;;;;;;0.00;99.90;;;;;;4999253;28;20029;-82
2023/03/07 06:11:58;;;;;;;;;;;0.00;99.90;;;;;;4999151;28;19967;-82
2023/03/07 06:14:25;;;;;;;;;;;0.10;99.90;;;;;;5015000;28;19913;-81
2023/03/07 06:16:50;;;;;;;;;;;0.10;99.90;;;;;;5016468;28;19967;-81
2023/03/07 06:19:16;;;;;;;;;;;0.10;99.90;;;;;;5014416;28;20004;-82
2023/03/07 06:21:42;;;;;;;;;;;0.10;99.90;;;;;;4998163;28;19940;-81
2023/03/07 06:24:08;;;;;;;;;;;0.10;99.90;;;;;;5016441;28;19924;-82
2023/03/07 06:26:33;;;;;;;;;;;0.10;99.90;;;;;;5014785;28;19918;-82
2023/03/07 06:28:59;;;;;;;;;;;0.10;99.90;;;;;;5015281;28;19909;-82
2023/03/07 06:31:24;;;;;;;;;;;0.00;99.90;;;;;;4998482;28;20281;-81
2023/03/07 06:33:50;;;;;;;;;;;-0.10;99.90;;;;;;5013917;28;19917;-82
2023/03/07 06:36:16;;;;;;;;;;;-0.10;99.90;;;;;;4997186;28;20018;-82
2023/03/07 06:38:42;;;;;;;;;;;-0.10;99.90;;;;;;5014405;28;19941;-82
2023/03/07 06:41:08;;;;;;;;;;;-0.10;99.90;;;;;;5015511;28;19920;-81
2023/03/07 06:43:33;;;;;;;;;;;-0.10;99.90;;;;;;5014757;28;19922;-82
2023/03/07 06:45:59;;;;;;;;;;;-0.10;99.90;;;;;;5014210;28;19921;-81
2023/03/07 06:48:24;;;;;;;;;;;-0.10;99.90;;;;;;5014709;28;19920;-82
2023/03/07 06:50:50;;;;;;;;;;;0.00;99.90;;;;;;5014176;28;19920;-81
2023/03/07 06:53:16;;;;;;;;;;;0.00;99.90;;;;;;5015452;28;19913;-82
2023/03/07 06:55:42;;;;;;;;;;;0.00;99.90;;;;;;5015053;28;20381;-82
2023/03/07 06:58:08;;;;;;;;;;;0.10;99.90;;;;;;5013397;28;19914;-82
2023/03/07 07:00:33;;;;;;;;;;;0.10;99.90;;;;;;5015738;28;20408;-81
2023/03/07 07:02:59;;;;;;;;;;;0.10;99.90;;;;;;5015379;28;19924;-81
2023/03/07 07:05:24;;;;;;;;;;;0.10;99.90;;;;;;5014677;28;19910;-81
2023/03/07 07:07:50;;;;;;;;;;;0.20;99.90;;;;;;4998335;28;19929;-81
2023/03/07 07:10:16;;;;;;;;;;;0.20;99.90;;;;;;5015911;28;19952;-81
2023/03/07 07:12:41;;;;;;;;;;;0.20;99.90;;;;;;5014609;28;19914;-81
2023/03/07 07:15:07;;;;;;;;;;;0.30;99.90;;;;;;5014185;28;19913;-81
2023/03/07 07:17:34;;;;;;;;;;;0.30;99.90;;;;;;4997851;28;19909;-81
2023/03/07 07:20:04;;;;;;;;;;;0.40;99.90;;;;;;4998200;28;19910;-81
2023/03/07 07:22:30;;;;;;;;;;;0.50;99.90;;;;;;4998165;28;20374;-81
2023/03/07 07:24:55;;;;;;;;;;;0.50;99.90;;;;;;5015820;28;20396;-81
2023/03/07 07:27:22;;;;;;;;;;;0.60;99.90;;;;;;5014682;28;19909;-81
2023/03/07 07:29:48;;;;;;;;;;;0.60;99.90;;;;;;5016709;28;19956;-80
2023/03/07 07:32:13;;;;;;;;;;;0.60;99.90;;;;;;4999975;28;19913;-81
2023/03/07 07:34:39;;;;;;;;;;;0.70;99.90;;;;;;5016231;28;19920;-81
2023/03/07 07:37:04;;;;;;;;;;;0.70;99.90;;;;;;4997445;28;20444;-80
2023/03/07 07:39:30;;;;;;;;;;;0.70;99.90;;;;;;5013366;28;19913;-80
2023/03/07 07:41:56;;;;;;;;;;;0.80;99.90;;;;;;5012712;28;19968;-80
2023/03/07 07:44:21;;;;;;;;;;;0.90;99.90;;;;;;5012964;28;19925;-80
2023/03/07 07:46:47;;;;;;;;;;;1.00;99.90;;;;;;5014885;28;19988;-80
2023/03/07 07:49:13;;;;;;;;;;;1.00;99.90;;;;;;5000460;28;20410;-80
2023/03/07 07:51:39;;;;;;;;;;;1.10;99.90;;;;;;5001905;28;19913;-80
2023/03/07 07:54:06;;;;;;;;;;;1.20;99.90;;;;;;5019781;28;20420;-80
2023/03/07 07:56:31;;;;;;;;;;;1.30;99.90;;;;;;5001527;28;20016;-80
2023/03/07 07:58:57;;;;;;;;;;;1.40;99.90;;;;;;5001457;28;19968;-80
2023/03/07 08:01:24;;;;;;;;;;;1.40;99.90;;;;;;4985692;28;19913;-80
2023/03/07 08:03:50;;;;;;;;;;;1.50;99.90;;;;;;5018716;28;20016;-80
2023/03/07 08:06:23;;;;;;;;;;;1.60;99.90;;;;;;5001510;28;19953;-80
2023/03/07 08:08:49;;;;;;;;;;;1.70;99.90;;;;;;5000780;28;19956;-80
2023/03/07 08:11:15;;;;;;;;;;;1.80;99.90;;;;;;5001257;28;19914;-80
2023/03/07 08:13:41;;;;;;;;;;;1.80;99.90;;;;;;5018815;28;19910;-80
2023/03/07 08:16:17;;;;;;;;;;;1.90;99.90;;;;;;4985037;28;19977;-80
2023/03/07 08:18:46;;;;;;;;;;;2.00;99.90;;;;;;5000775;28;19960;-80
2023/03/07 08:21:12;;;;;;;;;;;2.10;99.90;;;;;;5000856;28;19955;-80
2023/03/07 08:23:38;;;;;;;;;;;2.10;99.90;;;;;;5000700;28;19921;-80
2023/03/07 08:26:04;;;;;;;;;;;2.20;99.90;;;;;;4984840;28;20016;-80
2023/03/07 08:28:30;;;;;;;;;;;2.30;99.90;;;;;;5019724;28;19913;-80
2023/03/07 08:30:56;;;;;;;;;;;2.30;99.90;;;;;;5008676;28;20001;-80
2023/03/07 08:33:21;;;;;;;;;;;2.30;99.90;;;;;;5026122;28;19944;-81
2023/03/07 08:35:47;;;;;;;;;;;2.40;99.90;;;;;;5007840;28;19916;-81
2023/03/07 08:38:13;;;;;;;;;;;2.40;99.90;;;;;;5007518;28;19937;-81
2023/03/07 08:40:38;;;;;;;;;;;2.50;99.90;;;;;;5024359;28;19909;-81
2023/03/07 08:43:04;;;;;;;;;;;2.50;99.90;;;;;;5003068;28;20405;-81
2023/03/07 08:45:29;;;;;;;;;;;2.60;99.90;;;;;;4986005;28;20024;-81
2023/03/07 08:47:55;;;;;;;;;;;2.70;99.90;;;;;;5019703;28;19921;-82
2023/03/07 08:50:22;;;;;;;;;;;2.80;99.90;;;;;;5019785;28;20301;-82
2023/03/07 08:52:50;;;;;;;;;;;2.90;99.90;;;;;;5002118;28;19933;-82
2023/03/07 08:55:16;;;;;;;;;;;3.00;99.90;;;;;;4985211;28;20337;-82
2023/03/07 08:57:44;;;;;;;;;;;3.10;99.90;;;;;;5001239;28;19910;-82
2023/03/07 09:00:11;;;;;;;;;;;3.20;99.90;;;;;;5017876;28;19910;-82
2023/03/07 09:02:36;;;;;;;;;;;3.30;99.90;;;;;;5001064;28;19916;-82
2023/03/07 09:05:02;;;;;;;;;;;3.40;99.90;;;;;;5001493;28;19917;-82
2023/03/07 09:07:28;;;;;;;;;;;3.50;99.90;;;;;;5000960;28;19914;-82
2023/03/07 09:09:53;;;;;;;;;;;3.60;99.90;;;;;;5018296;28;20051;-82
2023/03/07 09:12:19;;;;;;;;;;;3.70;99.90;;;;;;5000982;28;19964;-82
2023/03/07 09:14:44;;;;;;;;;;;3.70;99.90;;;;;;5000605;28;20036;-82
2023/03/07 09:17:10;;;;;;;;;;;3.80;99.90;;;;;;5001063;28;19953;-82
2023/03/07 09:19:35;;;;;;;;;;;3.90;99.90;;;;;;4999880;28;19913;-82
2023/03/07 09:22:01;;;;;;;;;;;4.00;99.90;;;;;;5017622;28;20362;-82
2023/03/07 09:24:27;;;;;;;;;;;4.10;99.90;;;;;;4984118;28;20363;-82
2023/03/07 09:26:52;;;;;;;;;;;4.20;99.90;;;;;;4999547;28;19910;-82
2023/03/07 09:29:18;;;;;;;;;;;4.30;99.90;;;;;;5015731;28;19956;-82
2023/03/07 09:31:43;;;;;;;;;;;4.40;99.90;;;;;;4982027;28;19917;-82
2023/03/07 09:34:09;;;;;;;;;;;4.50;99.90;;;;;;4982061;28;19913;-82
2023/03/07 09:36:36;;;;;;;;;;;4.60;99.90;;;;;;4997945;28;19921;-82
2023/03/07 09:39:02;;;;;;;;;;;4.70;99.90;;;;;;4998414;28;19913;-82
2023/03/07 09:41:52;;;;;;;;;;;4.80;99.90;;;;;;4998511;28;19959;-83
2023/03/07 09:44:37;;;;;;;;;;;4.90;99.90;;;;;;5015750;28;20049;-82
2023/03/07 09:47:09;;;;;;;;;;;5.00;99.90;;;;;;5015833;28;19909;-82
2023/03/07 09:49:41;;;;;;;;;;;5.10;99.90;;;;;;4998154;28;19910;-82
2023/03/07 09:52:10;;;;;;;;;;;5.30;99.90;;;;;;4998074;28;19910;-82
2023/03/07 09:54:47;;;;;;;;;;;5.40;99.90;;;;;;4998414;28;19913;-82
2023/03/07 09:57:32;;;;;;;;;;;5.50;99.90;;;;;;4998091;28;19909;-82
2023/03/07 10:00:01;;;;;;;;;;;5.60;99.90;;;;;;4998284;28;19910;-83
2023/03/07 10:02:33;;;;;;;;;;;5.70;99.90;;;;;;4998168;28;20377;-82
2023/03/07 10:05:03;;;;;;;;;;;5.70;99.90;;;;;;5015781;28;19913;-82
2023/03/07 10:07:28;;;;;;;;;;;5.80;99.90;;;;;;4997994;28;19909;-82
2023/03/07 10:10:03;;;;;;;;;;;5.90;99.90;;;;;;5015810;28;20063;-82
2023/03/07 10:12:34;;;;;;;;;;;5.90;99.90;;;;;;4997921;28;19917;-82
2023/03/07 10:15:27;;;;;;;;;;;5.90;99.90;;;;;;5016076;28;20048;-82
2023/03/07 10:17:53;;;;;;;;;;;5.90;99.00;;;;;;4998106;28;19909;-82
2023/03/07 10:20:21;;;;;;;;;;;6.00;97.70;;;;;;4997994;28;19916;-83
2023/03/07 10:22:56;;;;;;;;;;;6.10;99.00;;;;;;4998048;28;19983;-82
2023/03/07 10:25:25;;;;;;;;;;;6.20;98.30;;;;;;4998543;28;19957;-82
2023/03/07 10:27:52;;;;;;;;;;;6.30;98.70;;;;;;4998338;28;20309;-82
2023/03/07 10:30:19;;;;;;;;;;;6.40;98.50;;;;;;5015849;28;20004;-82
2023/03/07 10:32:46;;;;;;;;;;;6.50;97.40;;;;;;4982330;28;20374;-83
2023/03/07 10:35:14;;;;;;;;;;;6.60;96.70;;;;;;5016043;28;19914;-82
2023/03/07 10:37:43;;;;;;;;;;;6.70;96.10;;;;;;4998223;28;20000;-82
2023/03/07 10:40:15;;;;;;;;;;;6.70;94.20;;;;;;4998892;28;19955;-83
2023/03/07 10:42:41;;;;;;;;;;;6.80;94.40;;;;;;5000167;28;19909;-82
2023/03/07 10:45:10;;;;;;;;;;;6.80;92.10;;;;;;4998155;28;19920;-82
2023/03/07 10:47:36;;;;;;;;;;;6.90;93.20;;;;;;5016422;28;20382;-82
2023/03/07 10:50:22;;;;;;;;;;;7.00;92.90;;;;;;4998668;28;19944;-82
2023/03/07 10:52:54;;;;;;;;;;;7.00;92.00;;;;;;5015342;28;19988;-82
2023/03/07 10:55:29;;;;;;;;;;;7.10;93.10;;;;;;4999196;28;19964;-82
2023/03/07 10:58:10;;;;;;;;;;;7.20;91.50;;;;;;4999442;28;20320;-82
2023/03/07 11:00:36;;;;;;;;;;;7.20;90.90;;;;;;4999317;28;19909;-83
2023/03/07 11:03:01;;;;;;;;;;;7.30;90.90;;;;;;5016751;28;19932;-82
2023/03/07 11:05:31;;;;;;;;;;;7.30;91.50;;;;;;4999367;28;19914;-82
2023/03/07 11:07:57;;;;;;;;;;;7.40;91.80;;;;;;4999514;28;20052;-82
2023/03/07 11:10:37;;;;;;;;;;;7.60;91.60;;;;;;4999288;28;20043;-83
2023/03/07 11:13:16;;;;;;;;;;;7.70;91.50;;;;;;5000103;28;19909;-83
2023/03/07 11:15:44;;;;;;;;;;;7.80;90.20;;;;;;5018352;28;20008;-83
2023/03/07 11:18:26;;;;;;;;;;;7.90;90.00;;;;;;4984451;28;20288;-82
2023/03/07 11:20:52;;;;;;;;;;;7.90;87.90;;;;;;5017554;28;19975;-82
2023/03/07 11:23:30;;;;;;;;;;;8.00;88.20;;;;;;4999886;28;19944;-83
2023/03/07 11:26:12;;;;;;;;;;;8.10;86.30;;;;;;5003748;28;19913;-82
2023/03/07 11:28:38;;;;;;;;;;;8.10;87.40;;;;;;5002726;28;20036;-83
2023/03/07 11:31:20;;;;;;;;;;;8.20;89.40;;;;;;5003305;28;20293;-82
2023/03/07 11:33:45;;;;;;;;;;;8.30;90.10;;;;;;5003729;28;19910;-83
2023/03/07 11:36:15;;;;;;;;;;;8.40;84.90;;;;;;5004277;28;19972;-83
2023/03/07 11:38:50;;;;;;;;;;;8.50;87.20;;;;;;5005160;28;19909;-84
2023/03/07 11:41:19;;;;;;;;;;;8.50;86.80;;;;;;5026984;28;19996;-84
2023/03/07 11:43:54;;;;;;;;;;;8.60;84.30;;;;;;5006252;28;20392;-84
2023/03/07 11:46:26;;;;;;;;;;;8.70;85.90;;;;;;5006047;28;19910;-85
2023/03/07 11:48:55;;;;;;;;;;;8.70;84.90;;;;;;5005841;28;19955;-84
2023/03/07 11:51:27;;;;;;;;;;;8.90;84.10;;;;;;5009295;28;19910;-85
2023/03/07 11:54:11;;;;;;;;;;;9.00;81.50;;;;;;5010075;28;19910;-86
2023/03/07 11:56:39;;;;;;;;;;;9.10;85.40;;;;;;5022646;28;19932;-86
2023/03/07 11:59:34;;;;;;;;;;;9.20;82.00;;;;;;5007204;28;19913;-86
2023/03/07 12:02:01;;;;;;;;;;;9.30;80.40;;;;;;4948080;28;20303;-84
2023/03/07 12:04:30;;;;;;;;;;;9.20;79.70;;;;;;4999292;28;20369;-85
2023/03/07 12:06:58;;;;;;;;;;;9.30;78.90;;;;;;5017005;28;19917;-85
2023/03/07 12:09:36;;;;;;;;;;;9.30;82.70;;;;;;5017269;28;20294;-84
2023/03/07 12:12:23;;;;;;;;;;;9.40;80.40;;;;;;5017352;28;19909;-85
2023/03/07 12:15:07;;;;;;;;;;;9.50;79.20;;;;;;5018715;28;19910;-85
2023/03/07 12:17:48;;;;;;;;;;;9.50;80.50;;;;;;5017600;28;20003;-85
2023/03/07 12:20:49;;;;;;;;;;;9.70;81.20;;;;;;5019023;28;19913;-85
2023/03/07 12:23:18;;;;;;;;;;;9.80;82.90;;;;;;4939492;29;19958;-85
2023/03/07 12:25:54;;;;;;;;;;;9.90;81.00;;;;;;4987545;28;20486;-85
2023/03/07 12:28:20;;;;;;;;;;;10.00;80.90;;;;;;5019155;28;20432;-85
2023/03/07 12:30:52;;;;;;;;;;;10.00;79.20;;;;;;5016113;28;19909;-85
2023/03/07 12:33:33;;;;;;;;;;;9.90;76.10;;;;;;5000698;28;19914;-85
2023/03/07 12:36:02;;;;;;;;;;;9.90;79.50;;;;;;5015034;28;20011;-85
2023/03/07 12:38:33;;;;;;;;;;;10.00;78.40;;;;;;5016684;28;19909;-85
2023/03/07 12:41:02;;;;;;;;;;;10.00;78.60;;;;;;4999760;28;19999;-86
2023/03/07 12:43:36;;;;;;;;;;;10.10;78.70;;;;;;4999475;28;19920;-86
2023/03/07 12:46:14;;;;;;;;;;;10.10;78.20;;;;;;4999580;28;19917;-85
2023/03/07 12:48:42;;;;;;;;;;;10.20;77.10;;;;;;5000053;28;19910;-85
2023/03/07 12:51:20;;;;;;;;;;;10.20;75.90;;;;;;5016049;28;19953;-85
2023/03/07 12:53:48;;;;;;;;;;;10.20;74.40;;;;;;5016097;28;20000;-85
2023/03/07 12:56:17;;;;;;;;;;;10.30;76.30;;;;;;5016011;28;19913;-85
2023/03/07 12:58:58;;;;;;;;;;;10.30;73.60;;;;;;5016132;28;19916;-85
2023/03/07 13:01:31;;;;;;;;;;;10.30;71.30;;;;;;5017594;28;20075;-85
2023/03/07 13:04:03;;;;;;;;;;;10.30;75.80;;;;;;4999837;28;19914;-85
2023/03/07 13:06:29;;;;;;;;;;;10.30;76.70;;;;;;5016744;28;19913;-85
2023/03/07 13:08:57;;;;;;;;;;;10.40;78.60;;;;;;4999888;28;19913;-84
2023/03/07 13:11:24;;;;;;;;;;;10.60;74.90;;;;;;5000217;28;20285;-85
2023/03/07 13:13:51;;;;;;;;;;;10.70;75.70;;;;;;5000165;28;19921;-84
2023/03/07 13:16:36;;;;;;;;;;;10.80;75.70;;;;;;4999788;28;20424;-85
2023/03/07 13:19:20;;;;;;;;;;;10.90;76.00;;;;;;5017522;28;19913;-84
2023/03/07 13:21:45;;;;;;;;;;;11.00;69.10;;;;;;5016242;28;19913;-85
2023/03/07 13:24:34;;;;;;;;;;;10.90;68.90;;;;;;5017359;28;20036;-85
2023/03/07 13:27:01;;;;;;;;;;;10.80;71.20;;;;;;5005888;28;20447;-84
2023/03/07 13:29:45;;;;;;;;;;;10.70;69.70;;;;;;4999930;28;19914;-84
2023/03/07 13:32:34;;;;;;;;;;;10.70;73.00;;;;;;5016112;28;19909;-85
2023/03/07 13:34:59;;;;;;;;;;;10.70;71.10;;;;;;4979472;28;19963;-84
2023/03/07 13:37:45;;;;;;;;;;;10.70;76.60;;;;;;4999302;28;19913;-84
2023/03/07 13:40:23;;;;;;;;;;;10.60;73.90;;;;;;5003027;28;20343;-85
2023/03/07 13:42:49;;;;;;;;;;;10.70;73.20;;;;;;5017144;28;19910;-84
2023/03/07 13:45:44;;;;;;;;;;;10.70;71.30;;;;;;5001526;28;19960;-85
2023/03/07 13:48:10;;;;;;;;;;;10.80;77.20;;;;;;5001328;28;19972;-85
2023/03/07 13:50:37;;;;;;;;;;;10.90;73.40;;;;;;5017955;28;19910;-85
2023/03/07 13:53:13;;;;;;;;;;;10.90;70.70;;;;;;5000304;28;19967;-84
2023/03/07 13:55:41;;;;;;;;;;;10.90;72.70;;;;;;5017724;28;19910;-85
2023/03/07 13:58:25;;;;;;;;;;;11.00;70.60;;;;;;4999416;28;20281;-85
2023/03/07 14:00:56;;;;;;;;;;;11.10;76.70;;;;;;5018315;28;19936;-84
2023/03/07 14:03:31;;;;;;;;;;;11.20;71.10;;;;;;5018092;28;19913;-85
2023/03/07 14:05:58;;;;;;;;;;;11.30;70.90;;;;;;5017692;28;19952;-85
2023/03/07 14:08:26;;;;;;;;;;;11.40;72.50;;;;;;5001840;28;20428;-84
2023/03/07 14:10:52;;;;;;;;;;;11.40;71.50;;;;;;5000168;28;20318;-84
2023/03/07 14:13:18;;;;;;;;;;;11.40;69.80;;;;;;5017447;28;19976;-84
2023/03/07 14:15:52;;;;;;;;;;;11.40;69.20;;;;;;5016408;28;19914;-84
2023/03/07 14:18:24;;;;;;;;;;;11.40;70.10;;;;;;5017839;28;20016;-84
2023/03/07 14:21:08;;;;;;;;;;;11.30;69.80;;;;;;5017228;28;19916;-84
2023/03/07 14:23:52;;;;;;;;;;;11.30;69.60;;;;;;5001226;28;20275;-84
2023/03/07 14:26:49;;;;;;;;;;;11.20;69.50;;;;;;5016004;28;20461;-84
2023/03/07 14:29:21;;;;;;;;;;;11.10;70.50;;;;;;5001291;28;19909;-84
2023/03/07 14:31:47;;;;;;;;;;;11.00;68.10;;;;;;5002530;28;19909;-84
2023/03/07 14:34:16;;;;;;;;;;;11.00;67.00;;;;;;5018144;28;19921;-84
2023/03/07 14:36:41;;;;;;;;;;;11.00;67.80;;;;;;5019332;28;19910;-83